createdAt,value
2023-10-26T00:00:11.148Z,59.44
2023-10-26T00:02:38.168Z,59.90
2023-10-26T00:05:05.544Z,59.85
2023-10-26T00:07:32.662Z,59.40
2023-10-26T00:09:59.469Z,59.52
2023-10-26T00:12:26.720Z,59.42
2023-10-26T00:14:54.417Z,60.05
2023-10-26T00:17:21.490Z,59.39
2023-10-26T00:19:48.285Z,60.04
2023-10-26T00:22:15.320Z,60.10
2023-10-26T00:24:42.185Z,59.97
2023-10-26T00:27:09.071Z,59.69
2023-10-26T00:29:35.915Z,59.68
2023-10-26T00:32:02.700Z,59.95
2023-10-26T00:34:29.512Z,59.65
2023-10-26T00:36:56.798Z,59.40
2023-10-26T00:39:23.636Z,59.98
2023-10-26T00:41:57.019Z,59.67
2023-10-26T00:44:24.505Z,59.73
2023-10-26T00:46:53.399Z,59.62
2023-10-26T00:49:21.009Z,59.58
2023-10-26T00:51:58.441Z,59.51
2023-10-26T00:54:27.797Z,59.99
2023-10-26T00:56:56.373Z,59.68
2023-10-26T00:59:28.039Z,59.49
2023-10-26T01:01:55.778Z,59.89
2023-10-26T01:04:22.615Z,59.68
2023-10-26T01:06:49.511Z,59.43
2023-10-26T01:09:16.555Z,59.92
2023-10-26T01:11:43.921Z,59.60
2023-10-26T01:14:10.880Z,59.69
2023-10-26T01:16:38.231Z,59.38
2023-10-26T01:19:06.966Z,59.35
2023-10-26T01:21:55.224Z,59.27
2023-10-26T01:24:22.106Z,59.54
2023-10-26T01:26:48.980Z,59.87
2023-10-26T01:29:15.978Z,59.56
2023-10-26T01:31:42.780Z,59.78
2023-10-26T01:34:09.549Z,59.37
2023-10-26T01:36:36.300Z,59.54
2023-10-26T01:39:04.185Z,59.27
2023-10-26T01:41:34.403Z,59.51
2023-10-26T01:44:04.669Z,59.31
2023-10-26T01:46:31.747Z,59.29
2023-10-26T01:49:01.957Z,59.44
2023-10-26T01:51:28.994Z,59.18
2023-10-26T01:53:56.151Z,59.70
2023-10-26T01:56:22.898Z,59.60
2023-10-26T01:58:49.743Z,59.72
2023-10-26T02:01:16.721Z,59.18
2023-10-26T02:03:43.536Z,59.09
2023-10-26T02:06:11.072Z,59.83
2023-10-26T02:08:37.964Z,58.95
2023-10-26T02:11:05.569Z,59.38
2023-10-26T02:13:32.638Z,59.52
2023-10-26T02:16:02.764Z,59.80
2023-10-26T02:18:30.422Z,59.29
2023-10-26T02:20:57.644Z,59.36
2023-10-26T02:23:24.730Z,59.06
2023-10-26T02:25:52.355Z,58.99
2023-10-26T02:28:20.990Z,59.60
2023-10-26T02:30:47.886Z,59.54
2023-10-26T02:33:14.786Z,59.65
2023-10-26T02:35:41.964Z,59.53
2023-10-26T02:38:08.712Z,59.26
2023-10-26T02:40:38.931Z,59.53
2023-10-26T02:43:06.159Z,59.35
2023-10-26T02:45:33.088Z,59.00
2023-10-26T02:48:00.652Z,59.30
2023-10-26T02:50:28.773Z,59.62
2023-10-26T02:52:55.749Z,58.93
2023-10-26T02:55:22.736Z,58.84
2023-10-26T02:57:49.688Z,59.12
2023-10-26T03:00:17.764Z,59.10
2023-10-26T03:02:44.908Z,59.24
2023-10-26T03:05:11.875Z,58.80
2023-10-26T03:07:38.631Z,59.13
2023-10-26T03:10:06.647Z,59.31
2023-10-26T03:12:33.829Z,59.38
2023-10-26T03:15:01.499Z,58.71
2023-10-26T03:17:28.492Z,59.11
2023-10-26T03:19:55.362Z,59.31
2023-10-26T03:22:22.626Z,58.98
2023-10-26T03:24:51.205Z,59.00
2023-10-26T03:27:18.087Z,59.11
2023-10-26T03:29:44.921Z,59.02
2023-10-26T03:32:11.886Z,58.98
2023-10-26T03:34:38.700Z,59.20
2023-10-26T03:37:05.581Z,58.73
2023-10-26T03:39:32.472Z,58.45
2023-10-26T03:41:59.716Z,58.98
2023-10-26T03:44:26.642Z,59.27
2023-10-26T03:46:53.764Z,58.81
2023-10-26T03:49:21.616Z,58.78
2023-10-26T03:51:49.178Z,59.02
2023-10-26T03:54:16.279Z,58.78
2023-10-26T03:56:43.508Z,58.73
2023-10-26T03:59:10.342Z,59.31
2023-10-26T04:01:37.297Z,59.16
2023-10-26T04:04:04.346Z,59.08
2023-10-26T04:06:34.080Z,59.12
2023-10-26T04:09:01.086Z,58.63
2023-10-26T04:11:28.028Z,58.83
2023-10-26T04:13:59.227Z,59.08
2023-10-26T04:16:26.533Z,59.02
2023-10-26T04:18:53.665Z,58.56
2023-10-26T04:21:23.658Z,58.48
2023-10-26T04:23:50.404Z,58.53
2023-10-26T04:26:17.179Z,58.51
2023-10-26T04:28:51.250Z,58.76
2023-10-26T04:31:19.404Z,59.04
2023-10-26T04:33:46.214Z,58.95
2023-10-26T04:36:13.268Z,58.33
2023-10-26T04:38:40.482Z,58.71
2023-10-26T04:41:07.262Z,58.36
2023-10-26T04:43:34.107Z,58.88
2023-10-26T04:46:00.918Z,58.61
2023-10-26T04:48:28.156Z,58.35
2023-10-26T04:50:55.219Z,58.24
2023-10-26T04:53:22.073Z,58.47
2023-10-26T04:55:48.804Z,58.56
2023-10-26T04:58:15.600Z,58.57
2023-10-26T05:00:42.465Z,58.10
2023-10-26T05:03:09.360Z,58.21
2023-10-26T05:05:36.430Z,58.30
2023-10-26T05:08:04.729Z,58.15
2023-10-26T05:10:31.604Z,58.94
2023-10-26T05:12:58.729Z,58.08
2023-10-26T05:15:25.822Z,58.35
2023-10-26T05:17:52.610Z,58.64
2023-10-26T05:20:19.557Z,58.45
2023-10-26T05:22:46.365Z,58.80
2023-10-26T05:25:15.069Z,58.15
2023-10-26T05:27:42.143Z,58.50
2023-10-26T05:30:09.391Z,58.16
2023-10-26T05:32:36.310Z,58.67
2023-10-26T05:35:03.466Z,58.16
2023-10-26T05:37:30.546Z,58.12
2023-10-26T05:40:00.312Z,58.56
2023-10-26T05:42:27.291Z,58.70
2023-10-26T05:44:58.059Z,58.72
2023-10-26T05:47:25.303Z,58.42
2023-10-26T05:49:52.216Z,58.31
2023-10-26T05:52:19.261Z,58.01
2023-10-26T05:54:46.329Z,58.34
2023-10-26T05:57:13.957Z,58.58
2023-10-26T05:59:41.040Z,58.56
2023-10-26T06:02:07.969Z,58.26
2023-10-26T06:04:34.926Z,57.84
2023-10-26T06:07:02.744Z,58.43
2023-10-26T06:09:29.730Z,58.04
2023-10-26T06:11:56.691Z,58.28
2023-10-26T06:14:24.037Z,58.50
2023-10-26T06:16:51.187Z,57.79
2023-10-26T06:19:18.291Z,57.96
2023-10-26T06:21:45.307Z,58.52
2023-10-26T06:24:12.550Z,58.21
2023-10-26T06:26:39.656Z,57.93
2023-10-26T06:29:06.529Z,58.51
2023-10-26T06:31:33.608Z,58.59
2023-10-26T06:34:00.695Z,58.54
2023-10-26T06:36:27.767Z,58.13
2023-10-26T06:38:55.803Z,58.55
2023-10-26T06:41:23.050Z,58.55
2023-10-26T06:43:49.957Z,58.31
2023-10-26T06:46:16.877Z,58.35
2023-10-26T06:48:44.091Z,57.72
2023-10-26T06:51:11.073Z,58.46
2023-10-26T06:53:38.123Z,57.74
2023-10-26T06:56:14.258Z,58.12
2023-10-26T06:58:43.884Z,58.12
2023-10-26T07:01:20.708Z,58.08
2023-10-26T07:03:52.040Z,58.05
2023-10-26T07:06:20.648Z,57.74
2023-10-26T07:08:50.224Z,58.04
2023-10-26T07:11:19.163Z,57.53
2023-10-26T07:13:46.907Z,57.72
2023-10-26T07:16:14.103Z,58.01
2023-10-26T07:18:41.011Z,58.16
2023-10-26T07:21:09.094Z,58.28
2023-10-26T07:23:36.307Z,57.85
2023-10-26T07:26:03.856Z,57.63
2023-10-26T07:28:30.753Z,57.95
2023-10-26T07:30:57.908Z,58.19
2023-10-26T07:33:25.089Z,58.00
2023-10-26T07:35:58.372Z,57.84
2023-10-26T07:38:36.563Z,57.98
2023-10-26T07:41:06.995Z,57.45
2023-10-26T07:43:35.215Z,57.74
2023-10-26T07:46:02.586Z,57.76
2023-10-26T07:48:29.537Z,57.77
2023-10-26T07:50:59.543Z,57.60
2023-10-26T07:53:26.666Z,57.52
2023-10-26T07:55:58.218Z,58.15
2023-10-26T07:58:29.295Z,58.00
2023-10-26T08:00:57.278Z,58.27
2023-10-26T08:03:29.331Z,57.64
2023-10-26T08:06:01.934Z,57.64
2023-10-26T08:08:29.272Z,58.17
2023-10-26T08:10:57.490Z,58.28
2023-10-26T08:13:24.875Z,58.24
2023-10-26T08:16:09.211Z,57.94
2023-10-26T08:18:40.620Z,57.68
2023-10-26T08:21:07.843Z,57.87
2023-10-26T08:23:34.709Z,58.26
2023-10-26T08:26:09.581Z,58.20
2023-10-26T08:28:39.875Z,58.10
2023-10-26T08:31:08.106Z,58.07
2023-10-26T08:33:35.685Z,57.98
2023-10-26T08:36:05.408Z,57.97
2023-10-26T08:38:34.259Z,58.01
2023-10-26T08:41:01.285Z,57.95
2023-10-26T08:43:30.225Z,57.88
2023-10-26T08:46:00.847Z,58.23
2023-10-26T08:48:30.554Z,58.39
2023-10-26T08:50:57.807Z,57.73
2023-10-26T08:53:25.379Z,57.96
2023-10-26T08:55:56.440Z,57.72
2023-10-26T08:58:23.560Z,57.74
2023-10-26T09:00:53.050Z,57.81
2023-10-26T09:03:23.311Z,58.33
2023-10-26T09:05:54.737Z,58.27
2023-10-26T09:08:24.608Z,57.54
2023-10-26T09:10:52.662Z,58.23
2023-10-26T09:13:30.163Z,57.95
2023-10-26T09:15:59.490Z,58.33
2023-10-26T09:18:29.812Z,58.77
2023-10-26T09:21:04.655Z,58.29
2023-10-26T09:23:33.324Z,58.35
2023-10-26T09:26:05.786Z,58.54
2023-10-26T09:28:55.256Z,58.46
2023-10-26T09:31:23.606Z,58.15
2023-10-26T09:33:51.508Z,58.94
2023-10-26T09:36:20.004Z,58.32
2023-10-26T09:38:49.013Z,58.23
2023-10-26T09:41:20.818Z,58.56
2023-10-26T09:43:48.913Z,58.62
2023-10-26T09:46:16.649Z,58.48
2023-10-26T09:48:43.958Z,58.91
2023-10-26T09:51:16.277Z,59.03
2023-10-26T09:53:47.032Z,58.71
2023-10-26T09:56:26.528Z,58.29
2023-10-26T09:58:55.043Z,58.89
2023-10-26T10:01:35.070Z,58.60
2023-10-26T10:04:03.025Z,59.05
2023-10-26T10:07:00.192Z,59.14
2023-10-26T10:09:28.676Z,58.93
2023-10-26T10:12:14.405Z,59.20
2023-10-26T10:14:54.435Z,58.84
2023-10-26T10:17:44.175Z,59.67
2023-10-26T10:20:20.121Z,59.06
2023-10-26T10:22:49.948Z,59.73
2023-10-26T10:25:21.427Z,59.96
2023-10-26T10:27:50.992Z,59.83
2023-10-26T10:30:22.419Z,59.83
2023-10-26T10:32:50.990Z,59.79
2023-10-26T10:35:23.755Z,60.00
2023-10-26T10:38:23.758Z,60.29
2023-10-26T10:40:56.543Z,59.97
2023-10-26T10:43:37.551Z,60.23
2023-10-26T10:46:13.993Z,59.95
2023-10-26T10:49:04.731Z,59.63
2023-10-26T10:51:33.194Z,59.56
2023-10-26T10:54:05.988Z,60.28
2023-10-26T10:56:48.846Z,60.39
2023-10-26T10:59:23.849Z,60.59
2023-10-26T11:02:06.344Z,60.32
2023-10-26T11:04:35.399Z,60.58
2023-10-26T11:07:04.201Z,59.93
2023-10-26T11:09:39.237Z,60.59
2023-10-26T11:12:10.515Z,60.18
2023-10-26T11:14:37.540Z,59.68
2023-10-26T11:17:04.641Z,60.86
2023-10-26T11:19:37.897Z,60.06
2023-10-26T11:22:05.523Z,60.65
2023-10-26T11:24:32.928Z,61.27
2023-10-26T11:27:10.461Z,60.42
2023-10-26T11:29:42.303Z,61.38
2023-10-26T11:32:19.823Z,60.71
2023-10-26T11:35:07.435Z,60.63
2023-10-26T11:37:39.044Z,61.11
2023-10-26T11:40:07.617Z,61.25
2023-10-26T11:42:54.751Z,61.49
2023-10-26T11:45:23.354Z,60.54
2023-10-26T11:47:54.024Z,60.72
2023-10-26T11:50:26.622Z,60.48
2023-10-26T11:52:56.151Z,61.07
2023-10-26T11:55:24.360Z,60.32
2023-10-26T11:57:52.616Z,60.88
2023-10-26T12:00:20.891Z,60.34
2023-10-26T12:02:47.938Z,60.88
2023-10-26T12:05:19.520Z,60.81
2023-10-26T12:07:47.891Z,61.24
2023-10-26T12:10:19.299Z,60.98
2023-10-26T12:12:46.956Z,60.94
2023-10-26T12:15:14.330Z,60.98
2023-10-26T12:17:41.180Z,60.53
2023-10-26T12:20:09.547Z,60.63
2023-10-26T12:22:36.463Z,60.64
2023-10-26T12:25:07.968Z,60.78
2023-10-26T12:28:24.093Z,61.09
2023-10-26T12:30:23.079Z,60.60
2023-10-26T12:32:49.940Z,60.93
2023-10-26T12:35:16.778Z,60.76
2023-10-26T12:37:43.542Z,60.58
2023-10-26T12:40:10.844Z,61.05
2023-10-26T12:42:37.668Z,60.64
2023-10-26T12:45:05.051Z,60.81
2023-10-26T12:47:31.822Z,60.80
2023-10-26T12:49:58.625Z,61.08
2023-10-26T12:52:25.934Z,60.57
2023-10-26T12:54:52.745Z,60.71
2023-10-26T12:57:19.890Z,60.66
2023-10-26T12:59:46.839Z,60.23
2023-10-26T13:02:13.593Z,60.62
2023-10-26T13:04:40.491Z,60.84
2023-10-26T13:07:07.341Z,60.64
2023-10-26T13:09:34.764Z,60.58
2023-10-26T13:12:01.911Z,60.23
2023-10-26T13:14:28.649Z,60.37
2023-10-26T13:16:58.917Z,60.66
2023-10-26T13:19:26.370Z,60.80
2023-10-26T13:21:53.350Z,60.41
2023-10-26T13:24:20.860Z,60.37
2023-10-26T13:26:47.743Z,60.75
2023-10-26T13:29:14.705Z,60.95
2023-10-26T13:31:41.807Z,60.87
2023-10-26T13:34:09.037Z,60.65
2023-10-26T13:36:36.326Z,61.11
2023-10-26T13:39:05.896Z,61.09
2023-10-26T13:41:32.827Z,60.98
2023-10-26T13:44:00.441Z,61.00
2023-10-26T13:46:27.632Z,60.84
2023-10-26T13:48:56.898Z,60.72
2023-10-26T13:51:23.955Z,61.20
2023-10-26T13:53:51.188Z,60.73
2023-10-26T13:56:18.007Z,60.79
2023-10-26T13:58:44.909Z,61.13
2023-10-26T14:01:13.683Z,61.05
2023-10-26T14:03:41.231Z,60.23
2023-10-26T14:06:12.679Z,61.32
2023-10-26T14:08:39.566Z,60.98
2023-10-26T14:11:06.533Z,60.78
2023-10-26T14:13:33.413Z,60.46
2023-10-26T14:16:00.537Z,60.89
2023-10-26T14:18:27.761Z,61.40
2023-10-26T14:20:54.754Z,61.11
2023-10-26T14:23:21.637Z,60.99
2023-10-26T14:25:48.469Z,61.07
2023-10-26T14:28:15.569Z,61.20
2023-10-26T14:30:42.539Z,60.44
2023-10-26T14:33:09.434Z,60.60
2023-10-26T14:35:36.801Z,60.23
2023-10-26T14:38:03.900Z,59.75
2023-10-26T14:40:30.758Z,61.07
2023-10-26T14:42:57.991Z,62.17
2023-10-26T14:45:26.746Z,61.54
2023-10-26T14:47:54.226Z,61.57
2023-10-26T14:50:21.537Z,61.95
2023-10-26T14:52:48.493Z,62.18
2023-10-26T14:55:15.579Z,61.66
2023-10-26T14:57:42.574Z,62.58
2023-10-26T15:00:10.108Z,61.84
2023-10-26T15:02:37.135Z,62.20
2023-10-26T15:05:05.446Z,61.81
2023-10-26T15:07:32.911Z,62.15
2023-10-26T15:10:24.015Z,61.70
2023-10-26T15:12:46.783Z,61.33
2023-10-26T15:15:13.631Z,61.29
2023-10-26T15:17:40.415Z,61.77
2023-10-26T15:20:11.673Z,61.72
2023-10-26T15:22:38.482Z,61.44
2023-10-26T15:25:05.989Z,61.40
2023-10-26T15:27:32.993Z,61.81
2023-10-26T15:29:59.990Z,61.69
2023-10-26T15:32:27.174Z,61.82
2023-10-26T15:34:53.985Z,61.56
2023-10-26T15:37:22.814Z,61.20
2023-10-26T15:39:55.516Z,61.90
2023-10-26T15:42:22.698Z,61.12
2023-10-26T15:44:56.112Z,61.67
2023-10-26T15:47:25.442Z,61.72
2023-10-26T15:49:52.947Z,61.53
2023-10-26T15:52:20.033Z,61.49
2023-10-26T15:54:47.210Z,62.00
2023-10-26T15:57:26.113Z,61.55
2023-10-26T15:59:53.460Z,61.66
2023-10-26T16:02:20.454Z,61.45
2023-10-26T16:04:47.312Z,61.68
2023-10-26T16:07:14.141Z,61.75
2023-10-26T16:09:41.017Z,62.35
2023-10-26T16:12:09.487Z,61.81
2023-10-26T16:14:36.332Z,62.25
2023-10-26T16:17:04.437Z,61.60
2023-10-26T16:19:31.303Z,62.02
2023-10-26T16:21:58.195Z,61.73
2023-10-26T16:24:25.109Z,61.43
2023-10-26T16:26:52.236Z,61.94
2023-10-26T16:29:19.159Z,61.25
2023-10-26T16:31:46.037Z,61.60
2023-10-26T16:34:13.081Z,62.01
2023-10-26T16:36:39.898Z,61.40
2023-10-26T16:39:07.060Z,61.78
2023-10-26T16:41:33.966Z,61.64
2023-10-26T16:44:01.468Z,61.30
2023-10-26T16:46:28.434Z,61.63
2023-10-26T16:48:55.464Z,61.63
2023-10-26T16:51:22.589Z,61.79
2023-10-26T16:53:49.405Z,61.64
2023-10-26T16:56:16.350Z,61.29
2023-10-26T16:58:43.120Z,61.61
2023-10-26T17:01:12.039Z,62.06
2023-10-26T17:03:39.574Z,61.77
2023-10-26T17:06:06.539Z,61.31
2023-10-26T17:08:33.460Z,61.62
2023-10-26T17:11:00.329Z,61.86
2023-10-26T17:13:27.627Z,61.74
2023-10-26T17:15:54.860Z,61.21
2023-10-26T17:18:23.257Z,61.27
2023-10-26T17:20:50.312Z,61.21
2023-10-26T17:23:17.416Z,62.01
2023-10-26T17:25:44.334Z,61.46
2023-10-26T17:28:12.689Z,61.26
2023-10-26T17:30:41.053Z,61.70
2023-10-26T17:33:11.802Z,61.39
2023-10-26T17:35:44.201Z,61.23
2023-10-26T17:38:12.530Z,61.84
2023-10-26T17:40:39.378Z,61.91
2023-10-26T17:43:07.507Z,61.26
2023-10-26T17:45:34.558Z,61.83
2023-10-26T17:48:01.907Z,61.56
2023-10-26T17:50:28.786Z,61.84
2023-10-26T17:52:55.577Z,61.78
2023-10-26T17:55:23.247Z,61.51
2023-10-26T17:57:50.254Z,61.42
2023-10-26T18:00:17.602Z,61.97
2023-10-26T18:02:44.533Z,61.86
2023-10-26T18:05:12.193Z,62.19
2023-10-26T18:07:39.070Z,61.77
2023-10-26T18:10:06.866Z,61.44
2023-10-26T18:12:33.679Z,61.39
2023-10-26T18:15:00.420Z,61.84
2023-10-26T18:17:27.690Z,61.94
2023-10-26T18:19:54.499Z,61.15
2023-10-26T18:22:21.326Z,61.10
2023-10-26T18:24:50.725Z,61.10
2023-10-26T18:27:18.049Z,61.75
2023-10-26T18:29:48.289Z,61.03
2023-10-26T18:32:15.322Z,61.25
2023-10-26T18:34:44.934Z,61.39
2023-10-26T18:37:11.843Z,61.57
2023-10-26T18:39:38.729Z,61.74
2023-10-26T18:42:06.542Z,61.78
2023-10-26T18:44:33.510Z,61.11
2023-10-26T18:47:00.318Z,61.49
2023-10-26T18:49:28.976Z,61.33
2023-10-26T18:51:56.235Z,61.71
2023-10-26T18:54:23.655Z,61.90
2023-10-26T18:56:50.420Z,61.98
2023-10-26T18:59:17.503Z,61.88
2023-10-26T19:01:47.631Z,61.57
2023-10-26T19:04:15.731Z,61.65
2023-10-26T19:06:43.015Z,61.42
2023-10-26T19:09:10.066Z,61.46
2023-10-26T19:11:37.304Z,61.52
2023-10-26T19:14:05.004Z,61.61
2023-10-26T19:16:32.156Z,61.62
2023-10-26T19:18:59.164Z,61.81
2023-10-26T19:21:29.966Z,62.04
2023-10-26T19:23:56.998Z,61.76
2023-10-26T19:26:24.111Z,61.78
2023-10-26T19:28:50.912Z,61.34
2023-10-26T19:31:18.086Z,62.13
2023-10-26T19:33:48.166Z,61.96
2023-10-26T19:36:15.261Z,61.98
2023-10-26T19:38:42.145Z,61.30
2023-10-26T19:41:09.023Z,61.53
2023-10-26T19:43:35.824Z,61.95
2023-10-26T19:46:02.943Z,61.24
2023-10-26T19:48:29.781Z,61.69
2023-10-26T19:50:56.731Z,61.79
2023-10-26T19:53:26.742Z,61.82
2023-10-26T19:55:57.540Z,61.19
2023-10-26T19:58:24.429Z,62.05
2023-10-26T20:00:51.743Z,61.10
2023-10-26T20:03:18.640Z,61.25
2023-10-26T20:05:45.806Z,61.77
2023-10-26T20:08:13.010Z,61.85
2023-10-26T20:10:44.563Z,61.62
2023-10-26T20:13:11.534Z,61.31
2023-10-26T20:15:38.302Z,61.39
2023-10-26T20:18:08.895Z,61.72
2023-10-26T20:20:35.820Z,61.85
2023-10-26T20:23:02.795Z,61.50
2023-10-26T20:25:29.814Z,61.44
2023-10-26T20:27:56.762Z,61.11
2023-10-26T20:30:24.005Z,61.69
2023-10-26T20:32:50.878Z,60.89
2023-10-26T20:35:18.033Z,61.59
2023-10-26T20:37:44.861Z,61.59
2023-10-26T20:40:13.462Z,61.81
2023-10-26T20:42:44.312Z,62.04
2023-10-26T20:45:14.407Z,61.31
2023-10-26T20:47:41.528Z,61.13
2023-10-26T20:50:08.776Z,61.30
2023-10-26T20:52:35.631Z,61.15
2023-10-26T20:55:02.516Z,61.65
2023-10-26T20:57:29.314Z,61.61
2023-10-26T20:59:56.173Z,61.51
2023-10-26T21:02:23.320Z,61.27
2023-10-26T21:04:50.067Z,61.63
2023-10-26T21:07:16.978Z,61.85
2023-10-26T21:09:43.981Z,61.43
2023-10-26T21:12:11.027Z,61.76
2023-10-26T21:14:37.976Z,61.21
2023-10-26T21:17:05.114Z,61.91
2023-10-26T21:19:31.988Z,61.56
2023-10-26T21:22:01.296Z,62.00
2023-10-26T21:24:28.339Z,61.96
2023-10-26T21:26:55.102Z,61.27
2023-10-26T21:29:22.044Z,61.40
2023-10-26T21:31:48.972Z,61.24
2023-10-26T21:34:16.103Z,61.19
2023-10-26T21:36:43.433Z,61.87
2023-10-26T21:39:10.206Z,61.45
2023-10-26T21:41:37.069Z,61.72
2023-10-26T21:44:04.076Z,61.53
2023-10-26T21:46:31.200Z,61.28
2023-10-26T21:48:58.221Z,61.37
2023-10-26T21:51:25.119Z,61.70
2023-10-26T21:53:51.954Z,61.39
2023-10-26T21:56:18.859Z,61.55
2023-10-26T21:58:46.861Z,60.99
2023-10-26T22:01:14.557Z,61.66
2023-10-26T22:03:43.196Z,61.30
2023-10-26T22:06:12.989Z,60.91
2023-10-26T22:08:43.404Z,61.67
2023-10-26T22:11:10.225Z,61.36
2023-10-26T22:13:37.214Z,61.34
2023-10-26T22:16:04.311Z,60.99
2023-10-26T22:18:31.331Z,60.98
2023-10-26T22:21:05.511Z,60.93
2023-10-26T22:23:32.381Z,61.24
2023-10-26T22:26:00.056Z,60.95
2023-10-26T22:32:14.947Z,61.13
2023-10-26T22:34:41.980Z,61.32
2023-10-26T22:37:09.400Z,61.30
2023-10-26T22:39:36.272Z,61.23
2023-10-26T22:42:03.636Z,61.31
2023-10-26T22:44:30.410Z,61.23
2023-10-26T22:46:57.351Z,60.91
2023-10-26T22:49:24.369Z,61.61
2023-10-26T22:51:51.412Z,61.54
2023-10-26T22:54:18.612Z,60.82
2023-10-26T22:56:45.951Z,60.89
2023-10-26T22:59:13.726Z,61.70
2023-10-26T23:01:40.916Z,61.48
2023-10-26T23:04:07.726Z,61.59
2023-10-26T23:06:34.961Z,60.97
2023-10-26T23:09:02.469Z,61.47
2023-10-26T23:11:29.662Z,61.29
2023-10-26T23:14:14.322Z,61.10
2023-10-26T23:16:41.284Z,61.47
2023-10-26T23:19:08.227Z,61.21
2023-10-26T23:21:35.471Z,61.08
2023-10-26T23:24:03.675Z,60.84
2023-10-26T23:26:34.880Z,61.16
2023-10-26T23:29:03.231Z,61.48
2023-10-26T23:31:30.205Z,61.49
2023-10-26T23:33:57.192Z,61.30
2023-10-26T23:36:24.345Z,61.26
2023-10-26T23:38:52.555Z,60.93
2023-10-26T23:41:19.416Z,61.13
2023-10-26T23:43:46.151Z,60.61
2023-10-26T23:46:12.993Z,61.39
2023-10-26T23:48:40.458Z,60.67
2023-10-26T23:51:08.282Z,61.45
2023-10-26T23:53:36.035Z,61.11
2023-10-26T23:56:06.427Z,60.93
2023-10-26T23:58:33.932Z,60.72
